createdAt,value
2022-11-12T00:02:41.893Z,4.60
2022-11-12T00:05:28.566Z,4.50
2022-11-12T00:08:15.590Z,4.50
2022-11-12T00:11:02.206Z,4.40
2022-11-12T00:13:50.470Z,4.50
2022-11-12T00:16:37.354Z,4.50
2022-11-12T00:19:23.797Z,4.50
2022-11-12T00:22:10.359Z,4.40
2022-11-12T00:24:56.790Z,4.40
2022-11-12T00:27:43.340Z,4.50
2022-11-12T00:30:31.302Z,4.40
2022-11-12T00:33:18.176Z,4.40
2022-11-12T00:36:05.073Z,4.40
2022-11-12T00:38:51.585Z,4.40
2022-11-12T00:41:38.017Z,4.40
2022-11-12T00:44:24.550Z,4.30
2022-11-12T00:47:12.600Z,4.30
2022-11-12T00:49:59.399Z,4.20
2022-11-12T00:52:46.243Z,4.20
2022-11-12T00:55:32.876Z,4.10
2022-11-12T00:58:19.694Z,4.20
2022-11-12T01:01:08.858Z,4.20
2022-11-12T01:03:59.637Z,4.30
2022-11-12T01:06:46.389Z,4.20
2022-11-12T01:09:33.027Z,4.10
2022-11-12T01:12:19.796Z,4.10
2022-11-12T01:15:07.872Z,4.10
2022-11-12T01:17:54.662Z,4.10
2022-11-12T01:20:42.574Z,4.10
2022-11-12T01:23:29.818Z,4.10
2022-11-12T01:26:19.879Z,4.10
2022-11-12T01:29:07.111Z,4.00
2022-11-12T01:31:53.705Z,4.00
2022-11-12T01:34:40.723Z,4.00
2022-11-12T01:37:29.006Z,3.90
2022-11-12T01:40:16.814Z,4.00
2022-11-12T01:43:03.810Z,4.10
2022-11-12T01:45:52.258Z,4.10
2022-11-12T01:48:45.809Z,4.10
2022-11-12T01:51:38.693Z,4.10
2022-11-12T01:54:27.873Z,4.10
2022-11-12T01:57:15.464Z,4.00
2022-11-12T02:00:05.608Z,4.00
2022-11-12T02:02:56.088Z,4.00
2022-11-12T02:05:43.876Z,4.00
2022-11-12T02:08:31.909Z,3.90
2022-11-12T02:11:22.296Z,3.90
2022-11-12T02:14:08.609Z,3.90
2022-11-12T02:16:55.444Z,3.90
2022-11-12T02:19:42.220Z,3.90
2022-11-12T02:22:30.234Z,4.00
2022-11-12T02:25:20.735Z,3.90
2022-11-12T02:28:09.489Z,3.80
2022-11-12T02:30:56.073Z,3.80
2022-11-12T02:33:42.638Z,3.70
2022-11-12T02:36:29.836Z,3.70
2022-11-12T02:39:18.851Z,3.70
2022-11-12T02:42:05.841Z,3.80
2022-11-12T02:44:53.588Z,3.70
2022-11-12T02:47:40.500Z,3.70
2022-11-12T02:50:27.429Z,3.70
2022-11-12T02:53:14.324Z,3.70
2022-11-12T02:56:03.042Z,3.70
2022-11-12T02:58:49.920Z,3.70
2022-11-12T03:01:37.404Z,3.70
2022-11-12T03:04:24.204Z,3.70
2022-11-12T03:07:11.110Z,3.70
2022-11-12T03:09:57.836Z,3.80
2022-11-12T03:12:45.921Z,3.70
2022-11-12T03:15:33.028Z,3.70
2022-11-12T03:18:19.514Z,3.70
2022-11-12T03:21:06.366Z,3.80
2022-11-12T03:23:53.256Z,3.70
2022-11-12T03:26:39.877Z,3.70
2022-11-12T03:29:27.990Z,3.70
2022-11-12T03:32:14.506Z,3.70
2022-11-12T03:35:00.926Z,3.60
2022-11-12T03:37:47.755Z,3.60
2022-11-12T03:40:34.873Z,3.60
2022-11-12T03:43:21.588Z,3.50
2022-11-12T03:46:09.616Z,3.50
2022-11-12T03:48:56.418Z,3.50
2022-11-12T03:51:42.890Z,3.50
2022-11-12T03:54:29.505Z,3.50
2022-11-12T03:57:15.985Z,3.50
2022-11-12T04:00:02.581Z,3.60
2022-11-12T04:02:50.598Z,3.60
2022-11-12T04:05:54.712Z,3.50
2022-11-12T04:08:41.550Z,3.50
2022-11-12T04:11:28.427Z,3.50
2022-11-12T04:14:14.943Z,3.40
2022-11-12T04:17:19.074Z,3.50
2022-11-12T04:20:27.267Z,3.50
2022-11-12T04:23:14.060Z,3.50
2022-11-12T04:26:18.181Z,3.60
2022-11-12T04:29:22.636Z,3.60
2022-11-12T04:32:09.501Z,3.50
2022-11-12T04:34:56.801Z,3.40
2022-11-12T04:37:47.849Z,3.30
2022-11-12T04:40:51.738Z,3.40
2022-11-12T04:43:55.786Z,3.40
2022-11-12T04:46:42.627Z,3.50
2022-11-12T04:49:29.425Z,3.50
2022-11-12T04:52:16.090Z,3.50
2022-11-12T04:55:04.187Z,3.50
2022-11-12T04:57:50.931Z,3.40
2022-11-12T05:00:39.816Z,3.40
2022-11-12T05:03:26.896Z,3.40
2022-11-12T05:06:27.428Z,3.30
2022-11-12T05:09:14.111Z,3.30
2022-11-12T05:12:02.479Z,3.30
2022-11-12T05:14:49.335Z,3.50
2022-11-12T05:17:35.836Z,3.50
2022-11-12T05:20:22.855Z,3.40
2022-11-12T05:23:10.082Z,3.30
2022-11-12T05:25:57.175Z,3.40
2022-11-12T05:28:45.108Z,3.30
2022-11-12T05:31:32.205Z,3.30
2022-11-12T05:34:22.901Z,3.30
2022-11-12T05:37:11.519Z,3.30
2022-11-12T05:39:59.313Z,3.50
2022-11-12T05:42:46.359Z,3.50
2022-11-12T05:45:34.614Z,3.50
2022-11-12T05:48:24.382Z,3.50
2022-11-12T05:51:14.162Z,3.30
2022-11-12T05:54:01.493Z,3.20
2022-11-12T05:56:48.124Z,3.20
2022-11-12T05:59:34.915Z,3.40
2022-11-12T06:02:23.277Z,3.40
2022-11-12T06:05:10.539Z,3.40
2022-11-12T06:07:57.481Z,3.40
2022-11-12T06:10:48.776Z,3.40
2022-11-12T06:13:35.207Z,3.50
2022-11-12T06:16:21.795Z,3.50
2022-11-12T06:19:09.827Z,3.50
2022-11-12T06:21:56.348Z,3.50
2022-11-12T06:24:43.403Z,3.60
2022-11-12T06:27:29.968Z,3.50
2022-11-12T06:30:16.527Z,3.50
2022-11-12T06:33:03.298Z,3.50
2022-11-12T06:35:58.194Z,3.40
2022-11-12T06:38:45.409Z,3.40
2022-11-12T06:41:32.436Z,3.40
2022-11-12T06:44:22.180Z,3.40
2022-11-12T06:47:11.129Z,3.30
2022-11-12T06:49:57.988Z,3.40
2022-11-12T06:52:46.154Z,3.60
2022-11-12T06:55:33.222Z,3.60
2022-11-12T06:58:19.897Z,3.60
2022-11-12T07:01:11.831Z,3.60
2022-11-12T07:03:59.392Z,3.60
2022-11-12T07:06:46.106Z,3.50
2022-11-12T07:09:34.377Z,3.60
2022-11-12T07:12:21.210Z,3.60
2022-11-12T07:15:08.401Z,3.60
2022-11-12T07:17:54.959Z,3.60
2022-11-12T07:20:41.754Z,3.80
2022-11-12T07:23:29.438Z,3.90
2022-11-12T07:26:19.167Z,3.80
2022-11-12T07:29:07.202Z,3.80
2022-11-12T07:31:53.980Z,3.90
2022-11-12T07:34:40.860Z,3.90
2022-11-12T07:37:27.623Z,4.00
2022-11-12T07:40:15.242Z,4.00
2022-11-12T07:43:03.628Z,4.00
2022-11-12T07:45:50.355Z,4.10
2022-11-12T07:48:37.774Z,4.10
2022-11-12T07:51:25.763Z,4.10
2022-11-12T07:54:13.224Z,4.20
2022-11-12T07:56:59.947Z,4.30
2022-11-12T07:59:47.898Z,4.40
2022-11-12T08:02:34.559Z,4.50
2022-11-12T08:05:21.692Z,4.60
2022-11-12T08:08:09.128Z,4.70
2022-11-12T08:10:57.587Z,4.80
2022-11-12T08:13:44.668Z,4.90
2022-11-12T08:16:32.829Z,5.10
2022-11-12T08:19:19.484Z,5.20
2022-11-12T08:22:06.202Z,5.20
2022-11-12T08:24:53.417Z,5.30
2022-11-12T08:27:39.827Z,5.40
2022-11-12T08:30:26.919Z,5.40
2022-11-12T08:33:15.453Z,5.50
2022-11-12T08:36:04.350Z,5.60
2022-11-12T08:38:54.210Z,5.60
2022-11-12T08:41:40.805Z,5.60
2022-11-12T08:44:27.425Z,5.70
2022-11-12T08:47:14.137Z,5.80
2022-11-12T08:50:02.371Z,5.90
2022-11-12T08:52:48.968Z,6.00
2022-11-12T08:55:36.559Z,6.10
2022-11-12T08:58:23.591Z,6.10
2022-11-12T09:01:11.270Z,6.20
2022-11-12T09:03:58.170Z,6.30
2022-11-12T09:06:51.163Z,6.40
2022-11-12T09:09:40.421Z,6.50
2022-11-12T09:12:27.082Z,6.60
2022-11-12T09:18:20.695Z,6.90
2022-11-12T09:21:09.557Z,7.00
2022-11-12T09:23:57.640Z,7.00
2022-11-12T09:26:44.760Z,7.10
2022-11-12T09:29:31.642Z,7.10
2022-11-12T09:32:18.276Z,7.20
2022-11-12T09:35:05.575Z,7.30
2022-11-12T09:37:53.215Z,7.30
2022-11-12T09:40:56.240Z,7.40
2022-11-12T09:43:49.483Z,7.40
2022-11-12T09:46:44.368Z,7.50
2022-11-12T09:49:34.815Z,7.60
2022-11-12T09:52:26.399Z,7.60
2022-11-12T09:55:23.599Z,7.60
2022-11-12T09:58:14.436Z,7.70
2022-11-12T10:01:11.882Z,7.70
2022-11-12T10:04:09.856Z,7.70
2022-11-12T10:07:02.847Z,7.80
2022-11-12T10:10:01.115Z,8.00
2022-11-12T10:13:06.842Z,8.10
2022-11-12T10:16:26.258Z,8.20
2022-11-12T10:19:42.577Z,8.40
2022-11-12T10:22:42.682Z,8.60
2022-11-12T10:25:29.449Z,8.70
2022-11-12T10:28:26.080Z,8.70
2022-11-12T10:31:15.890Z,8.80
2022-11-12T10:34:16.785Z,8.90
2022-11-12T10:37:07.594Z,9.10
2022-11-12T10:39:55.054Z,9.10
2022-11-12T10:42:58.676Z,9.20
2022-11-12T10:45:46.002Z,9.30
2022-11-12T10:48:35.065Z,9.50
2022-11-12T10:51:28.560Z,9.50
2022-11-12T10:54:29.550Z,9.50
2022-11-12T10:57:22.038Z,9.70
2022-11-12T11:00:20.703Z,9.80
2022-11-12T11:03:17.702Z,9.90
2022-11-12T11:06:07.695Z,10.00
2022-11-12T11:08:55.550Z,10.10
2022-11-12T11:11:51.082Z,10.20
2022-11-12T11:14:40.024Z,10.30
2022-11-12T11:17:26.785Z,10.30
2022-11-12T11:20:24.617Z,10.50
2022-11-12T11:23:18.593Z,10.60
2022-11-12T11:26:25.070Z,10.70
2022-11-12T11:29:30.587Z,10.70
2022-11-12T11:32:41.067Z,10.80
2022-11-12T11:35:36.566Z,10.90
2022-11-12T11:38:40.676Z,11.10
2022-11-12T11:41:49.492Z,11.30
2022-11-12T11:44:45.031Z,11.40
2022-11-12T11:48:00.095Z,11.50
2022-11-12T11:50:57.849Z,11.50
2022-11-12T11:53:51.595Z,11.50
2022-11-12T11:56:43.229Z,11.60
2022-11-12T11:59:42.485Z,11.60
2022-11-12T12:03:05.192Z,11.70
2022-11-12T12:06:11.733Z,11.70
2022-11-12T12:09:17.826Z,11.80
2022-11-12T12:12:15.139Z,11.70
2022-11-12T12:15:18.067Z,11.80
2022-11-12T12:18:13.081Z,11.80
2022-11-12T12:21:07.331Z,11.90
2022-11-12T12:23:59.114Z,12.00
2022-11-12T12:26:51.150Z,12.10
2022-11-12T12:29:45.294Z,12.10
2022-11-12T12:32:37.222Z,12.10
2022-11-12T12:35:29.125Z,12.20
2022-11-12T12:38:24.704Z,12.40
2022-11-12T12:41:17.892Z,12.40
2022-11-12T12:44:08.170Z,12.50
2022-11-12T12:46:58.902Z,12.50
2022-11-12T12:49:47.896Z,12.50
2022-11-12T12:53:02.713Z,12.50
2022-11-12T12:55:51.085Z,12.60
2022-11-12T12:58:44.445Z,12.50
2022-11-12T13:01:36.192Z,12.70
2022-11-12T13:04:54.165Z,12.70
2022-11-12T13:07:44.576Z,12.80
2022-11-12T13:10:56.134Z,12.80
2022-11-12T13:13:42.981Z,12.90
2022-11-12T13:17:00.003Z,12.90
2022-11-12T13:20:09.300Z,12.90
2022-11-12T13:22:56.369Z,12.90
2022-11-12T13:25:43.220Z,13.00
2022-11-12T13:28:30.001Z,12.90
2022-11-12T13:31:29.443Z,13.00
2022-11-12T13:34:23.841Z,12.90
2022-11-12T13:37:20.872Z,13.00
2022-11-12T13:40:12.961Z,13.10
2022-11-12T13:43:05.862Z,13.00
2022-11-12T13:45:58.023Z,12.90
2022-11-12T13:48:47.882Z,13.00
2022-11-12T13:51:43.495Z,13.10
2022-11-12T13:54:36.067Z,13.20
2022-11-12T13:57:31.679Z,13.10
2022-11-12T14:00:27.855Z,13.20
2022-11-12T14:03:20.163Z,13.20
2022-11-12T14:06:16.337Z,13.10
2022-11-12T14:09:27.433Z,13.20
2022-11-12T14:12:40.219Z,13.20
2022-11-12T14:15:38.046Z,13.30
2022-11-12T14:18:32.729Z,13.20
2022-11-12T14:21:19.957Z,13.30
2022-11-12T14:24:07.316Z,13.20
2022-11-12T14:26:56.044Z,13.20
2022-11-12T14:29:44.052Z,13.10
2022-11-12T14:32:36.933Z,13.20
2022-11-12T14:35:41.947Z,13.20
2022-11-12T14:38:31.734Z,13.30
2022-11-12T14:41:22.417Z,13.20
2022-11-12T14:44:19.004Z,13.20
2022-11-12T14:47:06.223Z,13.20
2022-11-12T14:49:52.767Z,13.10
2022-11-12T14:52:46.018Z,13.30
2022-11-12T14:55:37.353Z,13.20
2022-11-12T14:58:27.050Z,13.10
2022-11-12T15:04:39.519Z,13.10
2022-11-12T15:07:29.002Z,13.20
2022-11-12T15:10:33.827Z,13.20
2022-11-12T15:13:22.781Z,13.10
2022-11-12T15:16:11.500Z,12.90
2022-11-12T15:19:10.268Z,12.80
2022-11-12T15:21:58.909Z,12.60
2022-11-12T15:24:47.704Z,12.40
2022-11-12T15:27:37.505Z,12.30
2022-11-12T15:30:26.066Z,12.30
2022-11-12T15:33:21.538Z,12.30
2022-11-12T15:36:18.831Z,12.20
2022-11-12T15:39:12.232Z,12.20
2022-11-12T15:42:01.410Z,12.00
2022-11-12T15:44:49.518Z,11.80
2022-11-12T15:47:36.769Z,11.70
2022-11-12T15:50:25.985Z,11.60
2022-11-12T15:53:14.199Z,11.40
2022-11-12T15:56:03.201Z,11.30
2022-11-12T15:58:50.088Z,11.20
2022-11-12T16:01:36.961Z,10.90
2022-11-12T16:04:23.805Z,10.70
2022-11-12T16:07:11.081Z,10.50
2022-11-12T16:09:59.343Z,10.30
2022-11-12T16:12:48.246Z,10.20
2022-11-12T16:15:35.218Z,10.10
2022-11-12T16:18:22.386Z,10.00
2022-11-12T16:21:10.467Z,10.00
2022-11-12T16:23:57.074Z,9.90
2022-11-12T16:26:45.342Z,9.80
2022-11-12T16:29:32.131Z,9.80
2022-11-12T16:32:18.634Z,9.70
2022-11-12T16:35:05.546Z,9.70
2022-11-12T16:37:54.518Z,9.60
2022-11-12T16:40:41.325Z,9.50
2022-11-12T16:43:30.084Z,9.40
2022-11-12T16:46:26.032Z,9.50
2022-11-12T16:49:14.368Z,9.30
2022-11-12T16:52:01.806Z,9.30
2022-11-12T16:54:48.542Z,9.30
2022-11-12T16:57:35.194Z,9.20
2022-11-12T17:00:23.881Z,9.10
2022-11-12T17:03:13.277Z,9.20
2022-11-12T17:06:00.437Z,9.00
2022-11-12T17:08:48.137Z,8.80
2022-11-12T17:11:36.006Z,8.80
2022-11-12T17:14:28.172Z,8.60
2022-11-12T17:17:18.296Z,8.60
2022-11-12T17:20:06.360Z,8.70
2022-11-12T17:22:53.771Z,8.80
2022-11-12T17:25:42.293Z,8.80
2022-11-12T17:28:30.649Z,8.90
2022-11-12T17:31:19.886Z,8.80
2022-11-12T17:34:09.420Z,8.70
2022-11-12T17:36:57.647Z,8.60
2022-11-12T17:39:45.614Z,8.50
2022-11-12T17:42:32.788Z,8.50
2022-11-12T17:45:22.063Z,8.50
2022-11-12T17:48:09.979Z,8.50
2022-11-12T17:51:09.635Z,8.50
2022-11-12T17:53:56.816Z,8.50
2022-11-12T17:56:44.017Z,8.30
2022-11-12T17:59:31.081Z,8.20
2022-11-12T18:02:18.034Z,8.10
2022-11-12T18:05:09.486Z,8.30
2022-11-12T18:07:57.600Z,8.10
2022-11-12T18:10:45.612Z,8.10
2022-11-12T18:13:32.444Z,8.00
2022-11-12T18:16:21.945Z,7.90
2022-11-12T18:19:10.982Z,7.80
2022-11-12T18:21:57.942Z,7.70
2022-11-12T18:24:47.814Z,7.70
2022-11-12T18:27:34.873Z,7.80
2022-11-12T18:30:21.742Z,7.80
2022-11-12T18:33:08.449Z,7.90
2022-11-12T18:36:02.281Z,7.90
2022-11-12T18:38:51.107Z,7.80
2022-11-12T18:41:39.204Z,7.80
2022-11-12T18:44:26.386Z,7.70
2022-11-12T18:47:13.199Z,7.70
2022-11-12T18:50:04.085Z,7.60
2022-11-12T18:52:53.738Z,7.60
2022-11-12T18:55:40.407Z,7.60
2022-11-12T18:58:34.654Z,7.60
2022-11-12T19:01:23.600Z,7.60
2022-11-12T19:04:12.251Z,7.90
2022-11-12T19:06:59.333Z,8.00
2022-11-12T19:09:46.153Z,8.00
2022-11-12T19:12:32.735Z,8.20
2022-11-12T19:15:26.397Z,8.30
2022-11-12T19:18:14.764Z,8.40
2022-11-12T19:21:03.411Z,8.40
2022-11-12T19:23:54.355Z,8.40
2022-11-12T19:26:41.357Z,8.50
2022-11-12T19:29:27.942Z,8.60
2022-11-12T19:32:15.851Z,8.50
2022-11-12T19:35:02.295Z,8.60
2022-11-12T19:37:48.992Z,8.60
2022-11-12T19:40:35.832Z,8.60
2022-11-12T19:43:24.522Z,8.60
2022-11-12T19:46:12.113Z,8.70
2022-11-12T19:49:00.672Z,8.60
2022-11-12T19:51:47.129Z,8.60
2022-11-12T19:54:33.738Z,8.60
2022-11-12T19:57:20.438Z,8.60
2022-11-12T20:00:08.327Z,8.60
2022-11-12T20:02:55.215Z,8.60
2022-11-12T20:05:43.432Z,8.50
2022-11-12T20:08:30.870Z,8.40
2022-11-12T20:11:18.871Z,8.40
2022-11-12T20:14:05.735Z,8.50
2022-11-12T20:16:52.455Z,8.50
2022-11-12T20:19:40.176Z,8.40
2022-11-12T20:22:32.087Z,8.30
2022-11-12T20:25:19.154Z,8.30
2022-11-12T20:28:06.127Z,8.20
2022-11-12T20:30:52.671Z,8.20
2022-11-12T20:33:42.533Z,8.40
2022-11-12T20:36:31.397Z,8.30
2022-11-12T20:39:19.670Z,8.10
2022-11-12T20:42:06.602Z,8.10
2022-11-12T20:44:53.788Z,7.90
2022-11-12T20:47:40.624Z,7.90
2022-11-12T20:50:27.265Z,7.70
2022-11-12T20:53:13.809Z,7.80
2022-11-12T20:56:08.310Z,7.80
2022-11-12T20:58:55.043Z,7.80
2022-11-12T21:01:42.010Z,7.90
2022-11-12T21:04:28.919Z,7.90
2022-11-12T21:07:15.533Z,7.80
2022-11-12T21:10:02.260Z,7.80
2022-11-12T21:12:50.304Z,7.80
2022-11-12T21:15:36.859Z,7.80
2022-11-12T21:18:26.766Z,7.70
2022-11-12T21:21:15.558Z,7.70
2022-11-12T21:24:05.121Z,7.80
2022-11-12T21:26:52.229Z,8.00
2022-11-12T21:29:40.575Z,8.10
2022-11-12T21:32:27.241Z,7.90
2022-11-12T21:35:13.788Z,7.70
2022-11-12T21:38:00.231Z,7.70
2022-11-12T21:40:46.797Z,7.70
2022-11-12T21:43:36.437Z,7.80
2022-11-12T21:46:25.843Z,7.70
2022-11-12T21:49:12.845Z,7.50
2022-11-12T21:51:59.622Z,7.60
2022-11-12T21:54:46.345Z,7.70
2022-11-12T21:57:32.829Z,7.60
2022-11-12T22:00:41.002Z,7.40
2022-11-12T22:03:31.453Z,7.40
2022-11-12T22:06:19.787Z,7.30
2022-11-12T22:09:07.586Z,7.20
2022-11-12T22:11:54.490Z,7.10
2022-11-12T22:14:41.203Z,7.20
2022-11-12T22:17:28.526Z,7.20
2022-11-12T22:20:17.277Z,7.20
2022-11-12T22:23:03.920Z,7.20
2022-11-12T22:25:50.660Z,7.20
2022-11-12T22:28:37.871Z,7.30
2022-11-12T22:31:26.986Z,7.20
2022-11-12T22:34:13.772Z,7.20
2022-11-12T22:37:01.857Z,7.40
2022-11-12T22:39:48.822Z,7.40
2022-11-12T22:42:37.833Z,7.40
2022-11-12T22:45:24.338Z,7.50
2022-11-12T22:48:11.108Z,7.40
2022-11-12T22:51:00.662Z,7.30
2022-11-12T22:53:49.054Z,7.20
2022-11-12T22:56:35.676Z,7.20
2022-11-12T22:59:22.548Z,7.20
2022-11-12T23:02:09.366Z,7.30
2022-11-12T23:04:55.862Z,7.20
2022-11-12T23:07:42.591Z,7.30
2022-11-12T23:10:31.955Z,7.20
2022-11-12T23:13:18.730Z,7.20
2022-11-12T23:16:08.335Z,7.20
2022-11-12T23:18:56.200Z,7.10
2022-11-12T23:21:42.687Z,7.20
2022-11-12T23:24:29.237Z,7.20
2022-11-12T23:27:17.489Z,7.10
2022-11-12T23:30:04.665Z,7.10
2022-11-12T23:32:51.447Z,6.90
2022-11-12T23:35:38.159Z,6.80
2022-11-12T23:38:24.974Z,6.70
2022-11-12T23:41:13.218Z,6.70
2022-11-12T23:44:01.423Z,6.70
2022-11-12T23:46:47.985Z,6.70
2022-11-12T23:49:34.549Z,6.60
2022-11-12T23:52:21.274Z,6.60
2022-11-12T23:55:08.439Z,6.60
2022-11-12T23:57:55.327Z,6.70
